sensor_id;sensor_type;location;lat;lon;timestamp;temperature;humidity
22153;DHT22;11242;50.536;12.688;2023-10-31T00:00:15;11.60;99.90
22153;DHT22;11242;50.536;12.688;2023-10-31T00:02:41;11.60;99.90
22153;DHT22;11242;50.536;12.688;2023-10-31T00:05:07;11.60;99.90
22153;DHT22;11242;50.536;12.688;2023-10-31T00:07:32;11.60;99.90
22153;DHT22;11242;50.536;12.688;2023-10-31T00:09:58;11.60;99.90
22153;DHT22;11242;50.536;12.688;2023-10-31T00:12:23;11.60;99.90
22153;DHT22;11242;50.536;12.688;2023-10-31T00:14:49;11.60;99.90
22153;DHT22;11242;50.536;12.688;2023-10-31T00:17:14;11.60;99.90
22153;DHT22;11242;50.536;12.688;2023-10-31T00:19:40;11.60;99.90
22153;DHT22;11242;50.536;12.688;2023-10-31T00:22:06;11.50;99.90
22153;DHT22;11242;50.536;12.688;2023-10-31T00:24:31;11.50;99.90
22153;DHT22;11242;50.536;12.688;2023-10-31T00:26:58;11.50;99.90
22153;DHT22;11242;50.536;12.688;2023-10-31T00:29:23;11.50;99.90
22153;DHT22;11242;50.536;12.688;2023-10-31T00:31:49;11.40;99.90
22153;DHT22;11242;50.536;12.688;2023-10-31T00:34:15;11.40;99.90
22153;DHT22;11242;50.536;12.688;2023-10-31T00:36:41;11.40;99.90
22153;DHT22;11242;50.536;12.688;2023-10-31T00:39:06;11.40;99.90
22153;DHT22;11242;50.536;12.688;2023-10-31T00:41:32;11.40;99.90
22153;DHT22;11242;50.536;12.688;2023-10-31T00:43:58;11.40;99.90
22153;DHT22;11242;50.536;12.688;2023-10-31T00:46:24;11.30;99.90
22153;DHT22;11242;50.536;12.688;2023-10-31T00:48:50;11.30;99.90
22153;DHT22;11242;50.536;12.688;2023-10-31T00:51:15;11.20;99.90
22153;DHT22;11242;50.536;12.688;2023-10-31T00:53:41;11.20;99.90
22153;DHT22;11242;50.536;12.688;2023-10-31T00:56:07;11.20;99.90
22153;DHT22;11242;50.536;12.688;2023-10-31T00:58:33;11.20;99.90
22153;DHT22;11242;50.536;12.688;2023-10-31T01:00:58;11.20;99.90
22153;DHT22;11242;50.536;12.688;2023-10-31T01:03:24;11.30;99.90
22153;DHT22;11242;50.536;12.688;2023-10-31T01:05:50;11.40;99.90
22153;DHT22;11242;50.536;12.688;2023-10-31T01:08:15;11.50;99.90
22153;DHT22;11242;50.536;12.688;2023-10-31T01:10:41;11.50;99.90
22153;DHT22;11242;50.536;12.688;2023-10-31T01:13:06;11.60;99.90
22153;DHT22;11242;50.536;12.688;2023-10-31T01:15:32;11.70;99.90
22153;DHT22;11242;50.536;12.688;2023-10-31T01:17:59;11.70;99.90
22153;DHT22;11242;50.536;12.688;2023-10-31T01:20:25;11.70;99.90
22153;DHT22;11242;50.536;12.688;2023-10-31T01:22:51;11.70;99.90
22153;DHT22;11242;50.536;12.688;2023-10-31T01:25:16;11.70;99.90
22153;DHT22;11242;50.536;12.688;2023-10-31T01:27:42;11.60;99.90
22153;DHT22;11242;50.536;12.688;2023-10-31T01:30:09;11.60;99.90
22153;DHT22;11242;50.536;12.688;2023-10-31T01:32:34;11.60;99.90
22153;DHT22;11242;50.536;12.688;2023-10-31T01:35:00;11.60;99.90
22153;DHT22;11242;50.536;12.688;2023-10-31T01:37:25;11.50;99.90
22153;DHT22;11242;50.536;12.688;2023-10-31T01:39:53;11.50;99.90
22153;DHT22;11242;50.536;12.688;2023-10-31T01:42:19;11.50;99.90
22153;DHT22;11242;50.536;12.688;2023-10-31T01:44:45;11.50;99.90
22153;DHT22;11242;50.536;12.688;2023-10-31T01:47:11;11.50;99.90
22153;DHT22;11242;50.536;12.688;2023-10-31T01:49:36;11.60;99.90
22153;DHT22;11242;50.536;12.688;2023-10-31T01:52:05;11.50;99.90
22153;DHT22;11242;50.536;12.688;2023-10-31T01:54:33;11.50;99.90
22153;DHT22;11242;50.536;12.688;2023-10-31T01:57:00;11.50;99.90
22153;DHT22;11242;50.536;12.688;2023-10-31T01:59:29;11.40;99.90
22153;DHT22;11242;50.536;12.688;2023-10-31T02:01:56;11.40;99.90
22153;DHT22;11242;50.536;12.688;2023-10-31T02:04:24;11.30;99.90
22153;DHT22;11242;50.536;12.688;2023-10-31T02:06:49;11.30;99.90
22153;DHT22;11242;50.536;12.688;2023-10-31T02:09:15;11.30;99.90
22153;DHT22;11242;50.536;12.688;2023-10-31T02:11:41;11.30;99.90
22153;DHT22;11242;50.536;12.688;2023-10-31T02:14:07;11.40;99.90
22153;DHT22;11242;50.536;12.688;2023-10-31T02:16:32;11.40;99.90
22153;DHT22;11242;50.536;12.688;2023-10-31T02:18:58;11.40;99.90
22153;DHT22;11242;50.536;12.688;2023-10-31T02:21:25;11.40;99.90
22153;DHT22;11242;50.536;12.688;2023-10-31T02:23:58;11.40;99.90
22153;DHT22;11242;50.536;12.688;2023-10-31T02:26:34;11.40;99.90
22153;DHT22;11242;50.536;12.688;2023-10-31T02:29:01;11.40;99.90
22153;DHT22;11242;50.536;12.688;2023-10-31T02:31:27;11.40;99.90
22153;DHT22;11242;50.536;12.688;2023-10-31T02:33:53;11.40;99.90
22153;DHT22;11242;50.536;12.688;2023-10-31T02:36:19;11.40;99.90
22153;DHT22;11242;50.536;12.688;2023-10-31T02:38:45;11.40;99.90
22153;DHT22;11242;50.536;12.688;2023-10-31T02:41:11;11.40;99.90
22153;DHT22;11242;50.536;12.688;2023-10-31T02:43:37;11.40;99.90
22153;DHT22;11242;50.536;12.688;2023-10-31T02:46:03;11.40;99.90
22153;DHT22;11242;50.536;12.688;2023-10-31T02:48:29;11.40;99.90
22153;DHT22;11242;50.536;12.688;2023-10-31T02:50:57;11.30;99.90
22153;DHT22;11242;50.536;12.688;2023-10-31T02:53:23;11.40;99.90
22153;DHT22;11242;50.536;12.688;2023-10-31T02:55:49;11.40;99.90
22153;DHT22;11242;50.536;12.688;2023-10-31T02:58:14;11.40;99.90
22153;DHT22;11242;50.536;12.688;2023-10-31T03:00:42;11.30;99.90
22153;DHT22;11242;50.536;12.688;2023-10-31T03:03:08;11.40;99.90
22153;DHT22;11242;50.536;12.688;2023-10-31T03:05:34;11.40;99.90
22153;DHT22;11242;50.536;12.688;2023-10-31T03:07:59;11.30;99.90
22153;DHT22;11242;50.536;12.688;2023-10-31T03:10:26;11.40;99.90
22153;DHT22;11242;50.536;12.688;2023-10-31T03:12:53;11.40;99.90
22153;DHT22;11242;50.536;12.688;2023-10-31T03:15:18;11.30;99.90
22153;DHT22;11242;50.536;12.688;2023-10-31T03:17:44;11.20;99.90
22153;DHT22;11242;50.536;12.688;2023-10-31T03:20:10;11.20;99.90
22153;DHT22;11242;50.536;12.688;2023-10-31T03:22:35;11.20;99.90
22153;DHT22;11242;50.536;12.688;2023-10-31T03:25:01;11.10;99.90
22153;DHT22;11242;50.536;12.688;2023-10-31T03:27:27;11.10;99.90
22153;DHT22;11242;50.536;12.688;2023-10-31T03:29:52;11.00;99.90
22153;DHT22;11242;50.536;12.688;2023-10-31T03:32:18;11.00;99.90
22153;DHT22;11242;50.536;12.688;2023-10-31T03:34:43;11.00;99.90
22153;DHT22;11242;50.536;12.688;2023-10-31T03:37:09;11.00;99.90
22153;DHT22;11242;50.536;12.688;2023-10-31T03:39:35;11.00;99.90
22153;DHT22;11242;50.536;12.688;2023-10-31T03:42:00;11.00;99.90
22153;DHT22;11242;50.536;12.688;2023-10-31T03:44:26;11.00;99.90
22153;DHT22;11242;50.536;12.688;2023-10-31T03:46:52;10.90;99.90
22153;DHT22;11242;50.536;12.688;2023-10-31T03:49:17;10.90;99.90
22153;DHT22;11242;50.536;12.688;2023-10-31T03:51:45;10.90;99.90
22153;DHT22;11242;50.536;12.688;2023-10-31T03:54:10;10.90;99.90
22153;DHT22;11242;50.536;12.688;2023-10-31T03:56:40;10.90;99.90
22153;DHT22;11242;50.536;12.688;2023-10-31T03:59:06;10.90;99.90
22153;DHT22;11242;50.536;12.688;2023-10-31T04:01:31;10.90;99.90
22153;DHT22;11242;50.536;12.688;2023-10-31T04:03:57;10.90;99.90
22153;DHT22;11242;50.536;12.688;2023-10-31T04:06:23;10.90;99.90
22153;DHT22;11242;50.536;12.688;2023-10-31T04:08:48;10.90;99.90
22153;DHT22;11242;50.536;12.688;2023-10-31T04:11:14;10.90;99.90
22153;DHT22;11242;50.536;12.688;2023-10-31T04:13:39;10.90;99.90
22153;DHT22;11242;50.536;12.688;2023-10-31T04:16:05;10.90;99.90
22153;DHT22;11242;50.536;12.688;2023-10-31T04:18:31;10.90;99.90
22153;DHT22;11242;50.536;12.688;2023-10-31T04:20:56;10.90;99.90
22153;DHT22;11242;50.536;12.688;2023-10-31T04:23:22;10.90;99.90
22153;DHT22;11242;50.536;12.688;2023-10-31T04:25:47;11.00;99.90
22153;DHT22;11242;50.536;12.688;2023-10-31T04:28:13;11.00;99.90
22153;DHT22;11242;50.536;12.688;2023-10-31T04:30:40;11.00;99.90
22153;DHT22;11242;50.536;12.688;2023-10-31T04:33:05;11.00;99.90
22153;DHT22;11242;50.536;12.688;2023-10-31T04:35:31;11.00;99.90
22153;DHT22;11242;50.536;12.688;2023-10-31T04:37:56;11.00;99.90
22153;DHT22;11242;50.536;12.688;2023-10-31T04:40:22;10.90;99.90
22153;DHT22;11242;50.536;12.688;2023-10-31T04:42:48;10.80;99.90
22153;DHT22;11242;50.536;12.688;2023-10-31T04:45:13;10.70;99.90
22153;DHT22;11242;50.536;12.688;2023-10-31T04:47:40;10.70;99.90
22153;DHT22;11242;50.536;12.688;2023-10-31T04:50:05;10.70;99.90
22153;DHT22;11242;50.536;12.688;2023-10-31T04:52:31;10.60;99.90
22153;DHT22;11242;50.536;12.688;2023-10-31T04:54:57;10.60;99.90
22153;DHT22;11242;50.536;12.688;2023-10-31T04:57:22;10.60;99.90
22153;DHT22;11242;50.536;12.688;2023-10-31T04:59:48;10.70;99.90
22153;DHT22;11242;50.536;12.688;2023-10-31T05:02:14;10.70;99.90
22153;DHT22;11242;50.536;12.688;2023-10-31T05:04:40;10.70;99.90
22153;DHT22;11242;50.536;12.688;2023-10-31T05:07:08;10.70;99.90
22153;DHT22;11242;50.536;12.688;2023-10-31T05:09:34;10.70;99.90
22153;DHT22;11242;50.536;12.688;2023-10-31T05:12:00;10.70;99.90
22153;DHT22;11242;50.536;12.688;2023-10-31T05:14:26;10.70;99.90
22153;DHT22;11242;50.536;12.688;2023-10-31T05:16:51;10.70;99.90
22153;DHT22;11242;50.536;12.688;2023-10-31T05:19:17;10.60;99.90
22153;DHT22;11242;50.536;12.688;2023-10-31T05:21:43;10.60;99.90
22153;DHT22;11242;50.536;12.688;2023-10-31T05:24:09;10.60;99.90
22153;DHT22;11242;50.536;12.688;2023-10-31T05:26:34;10.60;99.90
22153;DHT22;11242;50.536;12.688;2023-10-31T05:29:00;10.60;99.90
22153;DHT22;11242;50.536;12.688;2023-10-31T05:31:26;10.50;99.90
22153;DHT22;11242;50.536;12.688;2023-10-31T05:33:52;10.50;99.90
22153;DHT22;11242;50.536;12.688;2023-10-31T05:36:21;10.50;99.90
22153;DHT22;11242;50.536;12.688;2023-10-31T05:38:48;10.40;99.90
22153;DHT22;11242;50.536;12.688;2023-10-31T05:41:14;10.40;99.90
22153;DHT22;11242;50.536;12.688;2023-10-31T05:43:40;10.40;99.90
22153;DHT22;11242;50.536;12.688;2023-10-31T05:46:05;10.40;99.90
22153;DHT22;11242;50.536;12.688;2023-10-31T05:48:32;10.40;99.90
22153;DHT22;11242;50.536;12.688;2023-10-31T05:50:57;10.40;99.90
22153;DHT22;11242;50.536;12.688;2023-10-31T05:53:23;10.40;99.90
22153;DHT22;11242;50.536;12.688;2023-10-31T05:55:49;10.40;99.90
22153;DHT22;11242;50.536;12.688;2023-10-31T05:58:14;10.30;99.90
22153;DHT22;11242;50.536;12.688;2023-10-31T06:00:40;10.30;99.90
22153;DHT22;11242;50.536;12.688;2023-10-31T06:03:06;10.30;99.90
22153;DHT22;11242;50.536;12.688;2023-10-31T06:05:31;10.30;99.90
22153;DHT22;11242;50.536;12.688;2023-10-31T06:07:57;10.30;99.90
22153;DHT22;11242;50.536;12.688;2023-10-31T06:10:22;10.30;99.90
22153;DHT22;11242;50.536;12.688;2023-10-31T06:12:48;10.30;99.90
22153;DHT22;11242;50.536;12.688;2023-10-31T06:15:14;10.20;99.90
22153;DHT22;11242;50.536;12.688;2023-10-31T06:17:39;10.10;99.90
22153;DHT22;11242;50.536;12.688;2023-10-31T06:20:07;10.00;99.90
22153;DHT22;11242;50.536;12.688;2023-10-31T06:22:33;10.00;99.90
22153;DHT22;11242;50.536;12.688;2023-10-31T06:24:59;10.00;99.90
22153;DHT22;11242;50.536;12.688;2023-10-31T06:27:24;9.90;99.90
22153;DHT22;11242;50.536;12.688;2023-10-31T06:29:50;10.00;99.90
22153;DHT22;11242;50.536;12.688;2023-10-31T06:32:15;10.00;99.90
22153;DHT22;11242;50.536;12.688;2023-10-31T06:34:41;9.90;99.90
22153;DHT22;11242;50.536;12.688;2023-10-31T06:37:06;9.90;99.90
22153;DHT22;11242;50.536;12.688;2023-10-31T06:39:32;10.00;99.90
22153;DHT22;11242;50.536;12.688;2023-10-31T06:41:58;10.00;99.90
22153;DHT22;11242;50.536;12.688;2023-10-31T06:44:23;10.00;99.90
22153;DHT22;11242;50.536;12.688;2023-10-31T06:46:49;10.00;99.90
22153;DHT22;11242;50.536;12.688;2023-10-31T06:49:15;10.10;99.90
22153;DHT22;11242;50.536;12.688;2023-10-31T06:51:41;10.10;99.90
22153;DHT22;11242;50.536;12.688;2023-10-31T06:54:06;10.10;99.90
22153;DHT22;11242;50.536;12.688;2023-10-31T06:56:32;10.20;99.90
22153;DHT22;11242;50.536;12.688;2023-10-31T06:58:58;10.10;99.90
22153;DHT22;11242;50.536;12.688;2023-10-31T07:01:24;10.10;99.90
22153;DHT22;11242;50.536;12.688;2023-10-31T07:03:50;10.00;99.90
22153;DHT22;11242;50.536;12.688;2023-10-31T07:06:15;10.00;99.90
22153;DHT22;11242;50.536;12.688;2023-10-31T07:08:41;10.00;99.90
22153;DHT22;11242;50.536;12.688;2023-10-31T07:11:06;9.90;99.90
22153;DHT22;11242;50.536;12.688;2023-10-31T07:13:32;9.90;99.90
22153;DHT22;11242;50.536;12.688;2023-10-31T07:15:57;9.90;99.90
22153;DHT22;11242;50.536;12.688;2023-10-31T07:18:23;9.90;99.90
22153;DHT22;11242;50.536;12.688;2023-10-31T07:20:49;9.90;99.90
22153;DHT22;11242;50.536;12.688;2023-10-31T07:23:14;9.90;99.90
22153;DHT22;11242;50.536;12.688;2023-10-31T07:25:40;9.90;99.90
22153;DHT22;11242;50.536;12.688;2023-10-31T07:28:06;9.90;99.90
22153;DHT22;11242;50.536;12.688;2023-10-31T07:30:31;9.90;99.90
22153;DHT22;11242;50.536;12.688;2023-10-31T07:32:57;9.90;99.90
22153;DHT22;11242;50.536;12.688;2023-10-31T07:35:23;10.00;99.90
22153;DHT22;11242;50.536;12.688;2023-10-31T07:37:48;10.00;99.90
22153;DHT22;11242;50.536;12.688;2023-10-31T07:40:14;10.00;99.90
22153;DHT22;11242;50.536;12.688;2023-10-31T07:42:39;10.10;99.90
22153;DHT22;11242;50.536;12.688;2023-10-31T07:45:05;10.10;99.90
22153;DHT22;11242;50.536;12.688;2023-10-31T07:47:31;10.20;99.90
22153;DHT22;11242;50.536;12.688;2023-10-31T07:49:57;10.20;99.90
22153;DHT22;11242;50.536;12.688;2023-10-31T07:52:22;10.20;99.90
22153;DHT22;11242;50.536;12.688;2023-10-31T07:54:48;10.20;99.90
22153;DHT22;11242;50.536;12.688;2023-10-31T07:57:13;10.30;99.90
22153;DHT22;11242;50.536;12.688;2023-10-31T07:59:39;10.40;99.90
22153;DHT22;11242;50.536;12.688;2023-10-31T08:02:04;10.50;99.90
22153;DHT22;11242;50.536;12.688;2023-10-31T08:04:31;10.40;99.90
22153;DHT22;11242;50.536;12.688;2023-10-31T08:06:57;10.30;99.90
22153;DHT22;11242;50.536;12.688;2023-10-31T08:09:22;10.30;99.90
22153;DHT22;11242;50.536;12.688;2023-10-31T08:11:48;10.40;99.90
22153;DHT22;11242;50.536;12.688;2023-10-31T08:14:13;10.40;99.90
22153;DHT22;11242;50.536;12.688;2023-10-31T08:16:41;10.30;99.90
22153;DHT22;11242;50.536;12.688;2023-10-31T08:19:07;10.30;99.90
22153;DHT22;11242;50.536;12.688;2023-10-31T08:21:32;10.40;99.90
22153;DHT22;11242;50.536;12.688;2023-10-31T08:24:01;10.40;99.90
22153;DHT22;11242;50.536;12.688;2023-10-31T08:26:27;10.60;99.90
22153;DHT22;11242;50.536;12.688;2023-10-31T08:28:53;10.90;99.90
22153;DHT22;11242;50.536;12.688;2023-10-31T08:31:18;11.10;99.90
22153;DHT22;11242;50.536;12.688;2023-10-31T08:33:45;11.50;99.90
22153;DHT22;11242;50.536;12.688;2023-10-31T08:36:11;11.70;99.90
22153;DHT22;11242;50.536;12.688;2023-10-31T08:38:36;11.50;99.90
22153;DHT22;11242;50.536;12.688;2023-10-31T08:41:02;11.40;99.90
22153;DHT22;11242;50.536;12.688;2023-10-31T08:43:28;11.40;99.90
22153;DHT22;11242;50.536;12.688;2023-10-31T08:45:53;11.40;99.90
22153;DHT22;11242;50.536;12.688;2023-10-31T08:48:19;11.30;99.90
22153;DHT22;11242;50.536;12.688;2023-10-31T08:50:45;11.30;99.90
22153;DHT22;11242;50.536;12.688;2023-10-31T08:53:11;11.20;99.90
22153;DHT22;11242;50.536;12.688;2023-10-31T08:55:37;11.10;99.90
22153;DHT22;11242;50.536;12.688;2023-10-31T08:58:02;11.20;99.90
22153;DHT22;11242;50.536;12.688;2023-10-31T09:00:28;11.10;99.90
22153;DHT22;11242;50.536;12.688;2023-10-31T09:02:54;11.10;99.90
22153;DHT22;11242;50.536;12.688;2023-10-31T09:05:20;11.20;99.90
22153;DHT22;11242;50.536;12.688;2023-10-31T09:07:46;11.20;99.90
22153;DHT22;11242;50.536;12.688;2023-10-31T09:10:12;11.10;99.90
22153;DHT22;11242;50.536;12.688;2023-10-31T09:12:37;11.20;99.90
22153;DHT22;11242;50.536;12.688;2023-10-31T09:15:04;11.40;99.90
22153;DHT22;11242;50.536;12.688;2023-10-31T09:17:29;11.60;99.90
22153;DHT22;11242;50.536;12.688;2023-10-31T09:19:55;12.00;99.90
22153;DHT22;11242;50.536;12.688;2023-10-31T09:22:21;12.00;99.90
22153;DHT22;11242;50.536;12.688;2023-10-31T09:24:46;11.90;99.90
22153;DHT22;11242;50.536;12.688;2023-10-31T09:27:12;11.80;99.90
22153;DHT22;11242;50.536;12.688;2023-10-31T09:29:37;11.80;99.90
22153;DHT22;11242;50.536;12.688;2023-10-31T09:32:04;11.90;99.90
22153;DHT22;11242;50.536;12.688;2023-10-31T09:34:31;11.90;99.90
22153;DHT22;11242;50.536;12.688;2023-10-31T09:36:57;11.70;99.90
22153;DHT22;11242;50.536;12.688;2023-10-31T09:39:23;11.50;99.90
22153;DHT22;11242;50.536;12.688;2023-10-31T09:41:49;11.40;99.90
22153;DHT22;11242;50.536;12.688;2023-10-31T09:44:14;11.30;99.90
22153;DHT22;11242;50.536;12.688;2023-10-31T09:46:40;11.10;99.90
22153;DHT22;11242;50.536;12.688;2023-10-31T09:49:07;11.00;99.90
22153;DHT22;11242;50.536;12.688;2023-10-31T09:51:33;11.10;99.90
22153;DHT22;11242;50.536;12.688;2023-10-31T09:54:02;11.20;99.90
22153;DHT22;11242;50.536;12.688;2023-10-31T09:56:29;11.00;99.90
22153;DHT22;11242;50.536;12.688;2023-10-31T09:59:00;11.10;99.90
22153;DHT22;11242;50.536;12.688;2023-10-31T10:01:26;11.20;99.90
22153;DHT22;11242;50.536;12.688;2023-10-31T10:03:52;11.40;99.90
22153;DHT22;11242;50.536;12.688;2023-10-31T10:06:19;11.40;99.90
22153;DHT22;11242;50.536;12.688;2023-10-31T10:08:46;11.50;99.90
22153;DHT22;11242;50.536;12.688;2023-10-31T10:11:12;11.30;99.90
22153;DHT22;11242;50.536;12.688;2023-10-31T10:13:38;11.50;99.90
22153;DHT22;11242;50.536;12.688;2023-10-31T10:16:04;11.60;99.90
22153;DHT22;11242;50.536;12.688;2023-10-31T10:18:31;11.50;99.90
22153;DHT22;11242;50.536;12.688;2023-10-31T10:21:02;11.50;99.90
22153;DHT22;11242;50.536;12.688;2023-10-31T10:23:29;11.50;99.90
22153;DHT22;11242;50.536;12.688;2023-10-31T10:25:57;11.70;99.90
22153;DHT22;11242;50.536;12.688;2023-10-31T10:28:24;11.90;99.90
22153;DHT22;11242;50.536;12.688;2023-10-31T10:30:54;12.00;99.90
22153;DHT22;11242;50.536;12.688;2023-10-31T10:33:21;12.10;99.90
22153;DHT22;11242;50.536;12.688;2023-10-31T10:35:47;11.90;99.90
22153;DHT22;11242;50.536;12.688;2023-10-31T10:38:14;11.90;99.90
22153;DHT22;11242;50.536;12.688;2023-10-31T10:40:43;11.80;99.90
22153;DHT22;11242;50.536;12.688;2023-10-31T10:45:43;11.70;99.90
22153;DHT22;11242;50.536;12.688;2023-10-31T10:48:13;11.50;99.90
22153;DHT22;11242;50.536;12.688;2023-10-31T10:50:45;11.50;99.90
22153;DHT22;11242;50.536;12.688;2023-10-31T10:53:23;11.50;99.90
22153;DHT22;11242;50.536;12.688;2023-10-31T10:55:55;11.50;99.90
22153;DHT22;11242;50.536;12.688;2023-10-31T10:58:38;11.60;99.90
22153;DHT22;11242;50.536;12.688;2023-10-31T11:01:07;11.50;99.90
22153;DHT22;11242;50.536;12.688;2023-10-31T11:03:34;11.50;99.90
22153;DHT22;11242;50.536;12.688;2023-10-31T11:05:59;11.70;99.90
22153;DHT22;11242;50.536;12.688;2023-10-31T11:08:26;12.00;99.90
22153;DHT22;11242;50.536;12.688;2023-10-31T11:10:53;12.30;99.90
22153;DHT22;11242;50.536;12.688;2023-10-31T11:13:20;12.30;99.90
22153;DHT22;11242;50.536;12.688;2023-10-31T11:15:47;12.30;99.90
22153;DHT22;11242;50.536;12.688;2023-10-31T11:18:17;12.20;99.90
22153;DHT22;11242;50.536;12.688;2023-10-31T11:20:43;12.10;99.90
22153;DHT22;11242;50.536;12.688;2023-10-31T11:23:09;12.10;99.90
22153;DHT22;11242;50.536;12.688;2023-10-31T11:25:42;11.80;99.90
22153;DHT22;11242;50.536;12.688;2023-10-31T11:28:16;11.70;99.90
22153;DHT22;11242;50.536;12.688;2023-10-31T11:30:43;11.60;99.90
22153;DHT22;11242;50.536;12.688;2023-10-31T11:33:14;11.70;99.90
22153;DHT22;11242;50.536;12.688;2023-10-31T11:35:41;11.80;99.90
22153;DHT22;11242;50.536;12.688;2023-10-31T11:38:08;11.80;99.90
22153;DHT22;11242;50.536;12.688;2023-10-31T11:40:37;11.70;99.90
22153;DHT22;11242;50.536;12.688;2023-10-31T11:43:04;11.60;99.90
22153;DHT22;11242;50.536;12.688;2023-10-31T11:45:41;11.50;99.90
22153;DHT22;11242;50.536;12.688;2023-10-31T11:48:07;11.40;99.90
22153;DHT22;11242;50.536;12.688;2023-10-31T11:50:34;11.30;99.90
22153;DHT22;11242;50.536;12.688;2023-10-31T11:53:11;11.30;99.90
22153;DHT22;11242;50.536;12.688;2023-10-31T11:55:46;11.30;99.90
22153;DHT22;11242;50.536;12.688;2023-10-31T11:58:23;11.40;99.90
22153;DHT22;11242;50.536;12.688;2023-10-31T12:00:51;11.30;99.90
22153;DHT22;11242;50.536;12.688;2023-10-31T12:03:21;11.30;99.90
22153;DHT22;11242;50.536;12.688;2023-10-31T12:05:57;11.20;99.90
22153;DHT22;11242;50.536;12.688;2023-10-31T12:08:35;11.30;99.90
22153;DHT22;11242;50.536;12.688;2023-10-31T12:11:12;11.30;99.90
22153;DHT22;11242;50.536;12.688;2023-10-31T12:14:02;11.20;99.90
22153;DHT22;11242;50.536;12.688;2023-10-31T12:16:33;11.20;99.90
22153;DHT22;11242;50.536;12.688;2023-10-31T12:19:03;11.10;99.90
22153;DHT22;11242;50.536;12.688;2023-10-31T12:21:42;11.10;99.90
22153;DHT22;11242;50.536;12.688;2023-10-31T12:24:10;11.20;99.90
22153;DHT22;11242;50.536;12.688;2023-10-31T12:26:36;11.30;99.90
22153;DHT22;11242;50.536;12.688;2023-10-31T12:29:16;11.30;99.90
22153;DHT22;11242;50.536;12.688;2023-10-31T12:31:47;11.10;99.90
22153;DHT22;11242;50.536;12.688;2023-10-31T12:34:17;11.00;99.90
22153;DHT22;11242;50.536;12.688;2023-10-31T12:36:44;10.90;99.90
22153;DHT22;11242;50.536;12.688;2023-10-31T12:39:12;10.90;99.90
22153;DHT22;11242;50.536;12.688;2023-10-31T12:41:38;10.80;99.90
22153;DHT22;11242;50.536;12.688;2023-10-31T12:44:05;10.80;99.90
22153;DHT22;11242;50.536;12.688;2023-10-31T12:46:32;10.90;99.90
22153;DHT22;11242;50.536;12.688;2023-10-31T12:48:58;10.90;99.90
22153;DHT22;11242;50.536;12.688;2023-10-31T12:51:24;10.80;99.90
22153;DHT22;11242;50.536;12.688;2023-10-31T12:53:53;10.70;99.90
22153;DHT22;11242;50.536;12.688;2023-10-31T12:56:37;10.70;99.90
22153;DHT22;11242;50.536;12.688;2023-10-31T12:59:09;10.80;99.90
22153;DHT22;11242;50.536;12.688;2023-10-31T13:01:43;10.90;99.90
22153;DHT22;11242;50.536;12.688;2023-10-31T13:04:08;10.90;99.90
22153;DHT22;11242;50.536;12.688;2023-10-31T13:06:35;11.00;99.90
22153;DHT22;11242;50.536;12.688;2023-10-31T13:09:01;10.90;99.90
22153;DHT22;11242;50.536;12.688;2023-10-31T13:11:30;11.00;99.90
22153;DHT22;11242;50.536;12.688;2023-10-31T13:13:56;10.90;99.90
22153;DHT22;11242;50.536;12.688;2023-10-31T13:16:22;10.90;99.90
22153;DHT22;11242;50.536;12.688;2023-10-31T13:18:47;10.90;99.90
22153;DHT22;11242;50.536;12.688;2023-10-31T13:21:13;10.90;99.90
22153;DHT22;11242;50.536;12.688;2023-10-31T13:23:43;10.80;99.90
22153;DHT22;11242;50.536;12.688;2023-10-31T13:26:13;10.80;99.90
22153;DHT22;11242;50.536;12.688;2023-10-31T13:28:39;10.80;99.90
22153;DHT22;11242;50.536;12.688;2023-10-31T13:31:06;10.60;99.90
22153;DHT22;11242;50.536;12.688;2023-10-31T13:33:32;10.60;99.90
22153;DHT22;11242;50.536;12.688;2023-10-31T13:35:58;10.60;99.90
22153;DHT22;11242;50.536;12.688;2023-10-31T13:38:24;10.60;99.90
22153;DHT22;11242;50.536;12.688;2023-10-31T13:40:49;10.70;99.90
22153;DHT22;11242;50.536;12.688;2023-10-31T13:43:15;10.60;99.90
22153;DHT22;11242;50.536;12.688;2023-10-31T13:45:40;10.70;99.90
22153;DHT22;11242;50.536;12.688;2023-10-31T13:48:06;10.60;99.90
22153;DHT22;11242;50.536;12.688;2023-10-31T13:50:32;10.70;99.90
22153;DHT22;11242;50.536;12.688;2023-10-31T13:52:57;10.70;99.90
22153;DHT22;11242;50.536;12.688;2023-10-31T13:55:23;10.70;99.90
22153;DHT22;11242;50.536;12.688;2023-10-31T13:57:51;10.70;99.90
22153;DHT22;11242;50.536;12.688;2023-10-31T14:00:17;10.80;99.90
22153;DHT22;11242;50.536;12.688;2023-10-31T14:02:43;10.80;99.90
22153;DHT22;11242;50.536;12.688;2023-10-31T14:05:08;10.70;99.90
22153;DHT22;11242;50.536;12.688;2023-10-31T14:07:34;10.70;99.90
22153;DHT22;11242;50.536;12.688;2023-10-31T14:10:00;10.60;99.90
22153;DHT22;11242;50.536;12.688;2023-10-31T14:12:26;10.60;99.90
22153;DHT22;11242;50.536;12.688;2023-10-31T14:14:53;10.50;99.90
22153;DHT22;11242;50.536;12.688;2023-10-31T14:17:19;10.50;99.90
22153;DHT22;11242;50.536;12.688;2023-10-31T14:19:44;10.60;99.90
22153;DHT22;11242;50.536;12.688;2023-10-31T14:22:12;10.50;99.90
22153;DHT22;11242;50.536;12.688;2023-10-31T14:24:38;10.50;99.90
22153;DHT22;11242;50.536;12.688;2023-10-31T14:27:03;10.50;99.90
22153;DHT22;11242;50.536;12.688;2023-10-31T14:29:29;10.40;99.90
22153;DHT22;11242;50.536;12.688;2023-10-31T14:31:54;10.30;99.90
22153;DHT22;11242;50.536;12.688;2023-10-31T14:34:20;10.40;99.90
22153;DHT22;11242;50.536;12.688;2023-10-31T14:36:46;10.40;99.90
22153;DHT22;11242;50.536;12.688;2023-10-31T14:39:12;10.40;99.90
22153;DHT22;11242;50.536;12.688;2023-10-31T14:41:38;10.50;99.90
22153;DHT22;11242;50.536;12.688;2023-10-31T14:44:04;10.60;99.90
22153;DHT22;11242;50.536;12.688;2023-10-31T14:46:30;10.50;99.90
22153;DHT22;11242;50.536;12.688;2023-10-31T14:48:57;10.60;99.90
22153;DHT22;11242;50.536;12.688;2023-10-31T14:51:23;10.50;99.90
22153;DHT22;11242;50.536;12.688;2023-10-31T14:53:49;10.40;99.90
22153;DHT22;11242;50.536;12.688;2023-10-31T14:56:15;10.50;99.90
22153;DHT22;11242;50.536;12.688;2023-10-31T14:58:41;10.50;99.90
22153;DHT22;11242;50.536;12.688;2023-10-31T15:01:07;10.50;99.90
22153;DHT22;11242;50.536;12.688;2023-10-31T15:03:32;10.40;99.90
22153;DHT22;11242;50.536;12.688;2023-10-31T15:05:58;10.40;99.90
22153;DHT22;11242;50.536;12.688;2023-10-31T15:08:24;10.30;99.90
22153;DHT22;11242;50.536;12.688;2023-10-31T15:10:51;10.30;99.90
22153;DHT22;11242;50.536;12.688;2023-10-31T15:13:16;10.20;99.90
22153;DHT22;11242;50.536;12.688;2023-10-31T15:15:42;10.20;99.90